Time;durP1;ratioP1;P1;durP2;ratioP2;P2;SDS_P1;SDS_P2;PMS_P1;PMS_P2;Temp;Humidity;BMP_temperature;BMP_pressure;BME280_temperature;BME280_humidity;BME280_pressure;Samples;Min_cycle;Max_cycle;Signal;HPM_P1;HPM_P2
2022/05/11 00:01:35;;;;;;;;;;;;;;;;;;5055388;28;20383;-76
2022/05/11 00:04:01;;;;;;;;;;;;;;;;;;5037959;28;19917;-77
2022/05/11 00:06:27;;;;;;;;;;;;;;;;;;5055353;28;19955;-76
2022/05/11 00:08:53;;;;;;;;;;;;;;;;;;5055023;28;19936;-76
2022/05/11 00:11:19;;;;;;;;;;;;;;;;;;5055353;28;20499;-76
2022/05/11 00:13:45;;;;;;;;;;;;;;;;;;5055210;28;20416;-76
2022/05/11 00:16:11;;;;;;;;;;;;;;;;;;5054928;28;20383;-76
2022/05/11 00:18:37;;;;;;;;;;;;;;;;;;5054861;28;19909;-76
2022/05/11 00:21:03;;;;;;;;;;;;;;;;;;5055175;28;19912;-76
2022/05/11 00:23:29;;;;;;;;;;;;;;;;;;5054999;28;19920;-76
2022/05/11 00:25:55;;;;;;;;;;;;;;;;;;5055069;28;19944;-76
2022/05/11 00:28:21;;;;;;;;;;;;;;;;;;5036855;28;19909;-77
2022/05/11 00:30:48;;;;;;;;;;;;;;;;;;5036824;28;19970;-77
2022/05/11 00:33:14;;;;;;;;;;;;;;;;;;5055045;28;20380;-76
2022/05/11 00:35:39;;;;;;;;;;;;;;;;;;5054860;28;19967;-77
2022/05/11 00:38:05;;;;;;;;;;;;;;;;;;5054874;28;19909;-76
2022/05/11 00:40:31;;;;;;;;;;;;;;;;;;5054518;28;19916;-77
2022/05/11 00:42:58;;;;;;;;;;;;;;;;;;5054906;28;19909;-77
2022/05/11 00:45:24;;;;;;;;;;;;;;;;;;5036700;28;20026;-77
2022/05/11 00:47:50;;;;;;;;;;;;;;;;;;5054156;28;19923;-78
2022/05/11 00:50:16;;;;;;;;;;;;;;;;;;5054975;28;19909;-77
2022/05/11 00:52:41;;;;;;;;;;;;;;;;;;5054946;28;20004;-79
2022/05/11 00:55:08;;;;;;;;;;;;;;;;;;5054865;28;20001;-77
2022/05/11 00:57:34;;;;;;;;;;;;;;;;;;5054897;28;19908;-77
2022/05/11 01:00:00;;;;;;;;;;;;;;;;;;5036124;28;20269;-77
2022/05/11 01:02:26;;;;;;;;;;;;;;;;;;5054684;28;19969;-76
2022/05/11 01:04:52;;;;;;;;;;;;;;;;;;5054297;28;19962;-76
2022/05/11 01:07:18;;;;;;;;;;;;;;;;;;5054335;28;19998;-76
2022/05/11 01:09:44;;;;;;;;;;;;;;;;;;5053920;28;19913;-78
2022/05/11 01:12:10;;;;;;;;;;;;;;;;;;5054291;28;20125;-77
2022/05/11 01:14:38;;;;;;;;;;;;;;;;;;5053997;28;19932;-78
2022/05/11 01:17:03;;;;;;;;;;;;;;;;;;5036111;28;20427;-78
2022/05/11 01:19:29;;;;;;;;;;;;;;;;;;5053798;28;19944;-79
2022/05/11 01:21:55;;;;;;;;;;;;;;;;;;5054047;28;19909;-78
2022/05/11 01:24:21;;;;;;;;;;;;;;;;;;5054080;28;20000;-78
2022/05/11 01:26:47;;;;;;;;;;;;;;;;;;5053735;28;19959;-78
2022/05/11 01:29:13;;;;;;;;;;;;;;;;;;5053663;28;19912;-78
2022/05/11 01:31:39;;;;;;;;;;;;;;;;;;5053872;28;19970;-78
2022/05/11 01:34:05;;;;;;;;;;;;;;;;;;5053642;28;20333;-78
2022/05/11 01:36:31;;;;;;;;;;;;;;;;;;5053603;28;20378;-77
2022/05/11 01:38:57;;;;;;;;;;;;;;;;;;5035383;28;20383;-76
2022/05/11 01:41:23;;;;;;;;;;;;;;;;;;5053727;28;19909;-76
2022/05/11 01:43:49;;;;;;;;;;;;;;;;;;5053544;28;19909;-76
2022/05/11 01:46:16;;;;;;;;;;;;;;;;;;5035682;28;20334;-77
2022/05/11 01:48:42;;;;;;;;;;;;;;;;;;5035317;28;20284;-77
2022/05/11 01:51:08;;;;;;;;;;;;;;;;;;5035636;28;19909;-76
2022/05/11 01:53:34;;;;;;;;;;;;;;;;;;5053522;28;19908;-76
2022/05/11 01:55:59;;;;;;;;;;;;;;;;;;5053232;28;19948;-76
2022/05/11 01:58:26;;;;;;;;;;;;;;;;;;5053012;28;19916;-79
2022/05/11 02:00:52;;;;;;;;;;;;;;;;;;5053375;28;20043;-76
2022/05/11 02:03:18;;;;;;;;;;;;;;;;;;5053459;28;19963;-76
2022/05/11 02:08:29;;;;;;;;;;;;;;;;;;5053019;28;19943;-77
2022/05/11 02:10:55;;;;;;;;;;;;;;;;;;5052734;28;19909;-77
2022/05/11 02:13:21;;;;;;;;;;;;;;;;;;5035006;28;19916;-77
2022/05/11 02:15:49;;;;;;;;;;;;;;;;;;5052728;28;19917;-77
2022/05/11 02:18:15;;;;;;;;;;;;;;;;;;5035124;28;19947;-76
2022/05/11 02:20:41;;;;;;;;;;;;;;;;;;5034697;28;19952;-77
2022/05/11 02:23:07;;;;;;;;;;;;;;;;;;5052950;28;19928;-77
2022/05/11 02:25:33;;;;;;;;;;;;;;;;;;5052703;28;19916;-78
2022/05/11 02:27:59;;;;;;;;;;;;;;;;;;5052776;28;19915;-77
2022/05/11 02:30:25;;;;;;;;;;;;;;;;;;5052494;28;19943;-77
2022/05/11 02:32:51;;;;;;;;;;;;;;;;;;5052752;28;19913;-77
2022/05/11 02:35:17;;;;;;;;;;;;;;;;;;5052926;28;20313;-77
2022/05/11 02:37:43;;;;;;;;;;;;;;;;;;5052955;28;20400;-77
2022/05/11 02:40:09;;;;;;;;;;;;;;;;;;5034466;28;20273;-77
2022/05/11 02:42:35;;;;;;;;;;;;;;;;;;5052710;28;20373;-76
2022/05/11 02:45:00;;;;;;;;;;;;;;;;;;5052128;28;20364;-77
2022/05/11 02:47:26;;;;;;;;;;;;;;;;;;5052481;28;19909;-78
2022/05/11 02:49:52;;;;;;;;;;;;;;;;;;5052084;28;19994;-78
2022/05/11 02:52:18;;;;;;;;;;;;;;;;;;5052520;28;19909;-78
2022/05/11 02:54:46;;;;;;;;;;;;;;;;;;5034714;28;19909;-78
2022/05/11 02:57:12;;;;;;;;;;;;;;;;;;5035476;28;19909;-78
2022/05/11 02:59:38;;;;;;;;;;;;;;;;;;5034917;28;19965;-77
2022/05/11 03:02:04;;;;;;;;;;;;;;;;;;5052254;28;20011;-77
2022/05/11 03:04:30;;;;;;;;;;;;;;;;;;5052309;28;20284;-76
2022/05/11 03:06:56;;;;;;;;;;;;;;;;;;5051936;28;19908;-76
2022/05/11 03:09:22;;;;;;;;;;;;;;;;;;5051695;28;19931;-77
2022/05/11 03:11:48;;;;;;;;;;;;;;;;;;5051922;28;20303;-77
2022/05/11 03:14:14;;;;;;;;;;;;;;;;;;5034202;28;19948;-77
2022/05/11 03:16:40;;;;;;;;;;;;;;;;;;5051939;28;19967;-76
2022/05/11 03:19:06;;;;;;;;;;;;;;;;;;5051532;28;19999;-77
2022/05/11 03:21:32;;;;;;;;;;;;;;;;;;5052051;28;19908;-77
2022/05/11 03:23:58;;;;;;;;;;;;;;;;;;5033913;28;19908;-77
2022/05/11 03:26:24;;;;;;;;;;;;;;;;;;5054115;28;19913;-76
2022/05/11 03:28:50;;;;;;;;;;;;;;;;;;5052197;28;20377;-76
2022/05/11 03:31:16;;;;;;;;;;;;;;;;;;5052393;28;19908;-76
2022/05/11 03:36:26;;;;;;;;;;;;;;;;;;5051647;28;19920;-77
2022/05/11 03:38:52;;;;;;;;;;;;;;;;;;5051321;28;19962;-77
2022/05/11 03:41:18;;;;;;;;;;;;;;;;;;5051666;28;19912;-77
2022/05/11 03:43:44;;;;;;;;;;;;;;;;;;5051672;28;19916;-76
2022/05/11 03:46:10;;;;;;;;;;;;;;;;;;5051683;28;20403;-77
2022/05/11 03:48:37;;;;;;;;;;;;;;;;;;5033733;28;19976;-77
2022/05/11 03:51:03;;;;;;;;;;;;;;;;;;5051821;28;20340;-76
2022/05/11 03:53:29;;;;;;;;;;;;;;;;;;5051853;28;19959;-77
2022/05/11 03:55:55;;;;;;;;;;;;;;;;;;5051639;28;19958;-76
2022/05/11 03:58:21;;;;;;;;;;;;;;;;;;5051523;28;20327;-77
2022/05/11 04:00:47;;;;;;;;;;;;;;;;;;5033507;28;20261;-77
2022/05/11 04:03:13;;;;;;;;;;;;;;;;;;5033777;28;19932;-76
2022/05/11 04:05:39;;;;;;;;;;;;;;;;;;5051601;28;19909;-76
2022/05/11 04:08:05;;;;;;;;;;;;;;;;;;5051445;28;19956;-76
2022/05/11 04:10:31;;;;;;;;;;;;;;;;;;5051299;28;19920;-76
2022/05/11 04:12:58;;;;;;;;;;;;;;;;;;5051534;28;19909;-78
2022/05/11 04:15:24;;;;;;;;;;;;;;;;;;5057879;28;19923;-77
2022/05/11 04:17:50;;;;;;;;;;;;;;;;;;5071144;28;19991;-77
2022/05/11 04:20:16;;;;;;;;;;;;;;;;;;5067616;28;19959;-77
2022/05/11 04:22:42;;;;;;;;;;;;;;;;;;5060580;28;19908;-77
2022/05/11 04:25:09;;;;;;;;;;;;;;;;;;5071310;28;19913;-77
2022/05/11 04:27:35;;;;;;;;;;;;;;;;;;5071235;28;19912;-77
2022/05/11 04:30:01;;;;;;;;;;;;;;;;;;5071138;28;19919;-77
2022/05/11 04:32:27;;;;;;;;;;;;;;;;;;5071246;28;19932;-76
2022/05/11 04:34:53;;;;;;;;;;;;;;;;;;5070807;28;20307;-77
2022/05/11 04:37:19;;;;;;;;;;;;;;;;;;5061462;28;19912;-78
2022/05/11 04:39:45;;;;;;;;;;;;;;;;;;5073274;28;19909;-76
2022/05/11 04:42:11;;;;;;;;;;;;;;;;;;5073898;28;19917;-77
2022/05/11 04:44:37;;;;;;;;;;;;;;;;;;5073417;28;19928;-77
2022/05/11 04:47:03;;;;;;;;;;;;;;;;;;5074592;28;20372;-77
2022/05/11 04:49:29;;;;;;;;;;;;;;;;;;5074379;28;19909;-78
2022/05/11 04:51:55;;;;;;;;;;;;;;;;;;5074582;28;19962;-78
2022/05/11 04:54:21;;;;;;;;;;;;;;;;;;5065460;28;19963;-78
2022/05/11 04:56:47;;;;;;;;;;;;;;;;;;5073833;28;19948;-78
2022/05/11 04:59:14;;;;;;;;;;;;;;;;;;5073811;28;20002;-78
2022/05/11 05:01:40;;;;;;;;;;;;;;;;;;5053022;28;19920;-78
2022/05/11 05:04:06;;;;;;;;;;;;;;;;;;5074321;28;19909;-79
2022/05/11 05:06:36;;;;;;;;;;;;;;;;;;5072118;28;19909;-78
2022/05/11 05:09:02;;;;;;;;;;;;;;;;;;5042576;28;19912;-78
2022/05/11 05:11:28;;;;;;;;;;;;;;;;;;5074276;28;19909;-77
2022/05/11 05:13:54;;;;;;;;;;;;;;;;;;5056383;28;19920;-77
2022/05/11 05:16:19;;;;;;;;;;;;;;;;;;5055155;28;19964;-77
2022/05/11 05:18:45;;;;;;;;;;;;;;;;;;5057133;28;19948;-78
2022/05/11 05:21:11;;;;;;;;;;;;;;;;;;5053890;28;20296;-77
2022/05/11 05:23:37;;;;;;;;;;;;;;;;;;5054064;28;19905;-78
2022/05/11 05:26:03;;;;;;;;;;;;;;;;;;5059285;28;19916;-78
2022/05/11 05:31:15;;;;;;;;;;;;;;;;;;5093577;28;19919;-77
2022/05/11 05:33:40;;;;;;;;;;;;;;;;;;5093247;28;20349;-78
2022/05/11 05:36:06;;;;;;;;;;;;;;;;;;5096219;28;19916;-79
2022/05/11 05:38:32;;;;;;;;;;;;;;;;;;5080348;28;19943;-79
2022/05/11 05:40:58;;;;;;;;;;;;;;;;;;5099151;28;19916;-79
2022/05/11 05:43:24;;;;;;;;;;;;;;;;;;5095614;28;19904;-78
2022/05/11 05:45:50;;;;;;;;;;;;;;;;;;5076108;28;19915;-80
2022/05/11 05:48:16;;;;;;;;;;;;;;;;;;5099524;28;19908;-80
2022/05/11 05:50:42;;;;;;;;;;;;;;;;;;5098778;28;19908;-79
2022/05/11 05:53:08;;;;;;;;;;;;;;;;;;5093642;28;20015;-78
2022/05/11 05:55:34;;;;;;;;;;;;;;;;;;5092937;28;19951;-78
2022/05/11 05:58:00;;;;;;;;;;;;;;;;;;5092932;28;20398;-78
2022/05/11 06:00:26;;;;;;;;;;;;;;;;;;5092767;28;19947;-78
2022/05/11 06:02:52;;;;;;;;;;;;;;;;;;5074790;28;19935;-78
2022/05/11 06:05:17;;;;;;;;;;;;;;;;;;5093928;28;19943;-79
2022/05/11 06:07:43;;;;;;;;;;;;;;;;;;5092968;28;19909;-79
2022/05/11 06:10:09;;;;;;;;;;;;;;;;;;5092566;28;19912;-78
2022/05/11 06:12:35;;;;;;;;;;;;;;;;;;5093139;28;19916;-78
2022/05/11 06:15:02;;;;;;;;;;;;;;;;;;5092685;28;20655;-79
2022/05/11 06:17:29;;;;;;;;;;;;;;;;;;5093615;28;19912;-79
2022/05/11 06:19:55;;;;;;;;;;;;;;;;;;5092790;28;20011;-78
2022/05/11 06:22:21;;;;;;;;;;;;;;;;;;5093483;28;20412;-80
2022/05/11 06:24:47;;;;;;;;;;;;;;;;;;5094703;28;20006;-80
2022/05/11 06:27:13;;;;;;;;;;;;;;;;;;5098162;28;20005;-79
2022/05/11 06:29:39;;;;;;;;;;;;;;;;;;5097700;28;19961;-80
2022/05/11 06:32:05;;;;;;;;;;;;;;;;;;5079962;28;19916;-80
2022/05/11 06:34:31;;;;;;;;;;;;;;;;;;5096149;28;19996;-79
2022/05/11 06:36:57;;;;;;;;;;;;;;;;;;5094897;28;19916;-79
2022/05/11 06:39:23;;;;;;;;;;;;;;;;;;5092036;28;19953;-79
2022/05/11 06:41:49;;;;;;;;;;;;;;;;;;5092226;28;19908;-77
2022/05/11 06:44:15;;;;;;;;;;;;;;;;;;5074097;28;19919;-77
2022/05/11 06:46:41;;;;;;;;;;;;;;;;;;5092097;28;19954;-77
2022/05/11 06:49:06;;;;;;;;;;;;;;;;;;5091665;28;19912;-77
2022/05/11 06:51:32;;;;;;;;;;;;;;;;;;5092075;28;19912;-77
2022/05/11 06:59:28;;;;;;;;;;;;;;;;;;5091511;28;19915;-76
2022/05/11 07:01:54;;;;;;;;;;;;;;;;;;5091877;28;20400;-76
2022/05/11 07:04:22;;;;;;;;;;;;;;;;;;5091954;28;20013;-76
2022/05/11 07:06:48;;;;;;;;;;;;;;;;;;5091707;28;19916;-76
2022/05/11 07:09:14;;;;;;;;;;;;;;;;;;5073332;28;19915;-76
2022/05/11 07:14:26;;;;;;;;;;;;;;;;;;5091908;28;19916;-77
2022/05/11 07:16:52;;;;;;;;;;;;;;;;;;5091407;28;20382;-77
2022/05/11 07:19:21;;;;;;;;;;;;;;;;;;5091356;28;19912;-77
2022/05/11 07:21:48;;;;;;;;;;;;;;;;;;5091588;28;20337;-77
2022/05/11 07:24:14;;;;;;;;;;;;;;;;;;5091678;28;19915;-77
2022/05/11 07:26:39;;;;;;;;;;;;;;;;;;5073376;28;19908;-76
2022/05/11 07:29:05;;;;;;;;;;;;;;;;;;5091151;28;19916;-77
2022/05/11 07:31:31;;;;;;;;;;;;;;;;;;5091593;28;19999;-77
2022/05/11 07:33:57;;;;;;;;;;;;;;;;;;5091470;28;19912;-77
2022/05/11 07:36:24;;;;;;;;;;;;;;;;;;5074352;28;19912;-79
2022/05/11 07:38:50;;;;;;;;;;;;;;;;;;5091443;28;20283;-77
2022/05/11 07:41:16;;;;;;;;;;;;;;;;;;5091465;28;19913;-77
2022/05/11 07:43:42;;;;;;;;;;;;;;;;;;5073260;28;19905;-77
2022/05/11 07:46:07;;;;;;;;;;;;;;;;;;5091360;28;19908;-77
2022/05/11 07:48:33;;;;;;;;;;;;;;;;;;5090934;28;19908;-77
2022/05/11 07:50:59;;;;;;;;;;;;;;;;;;5091296;28;20342;-77
2022/05/11 07:53:25;;;;;;;;;;;;;;;;;;5091462;28;19953;-77
2022/05/11 07:59:52;;;;;;;;;;;;;;;;;;5091158;28;19920;-77
2022/05/11 08:01:22;;;;;;;;;;;;;;;;;;5091280;28;19954;-77
2022/05/11 08:03:48;;;;;;;;;;;;;;;;;;5091165;28;20336;-77
2022/05/11 08:06:16;;;;;;;;;;;;;;;;;;5091113;28;19916;-77
2022/05/11 08:08:42;;;;;;;;;;;;;;;;;;5072710;28;20376;-77
2022/05/11 08:11:08;;;;;;;;;;;;;;;;;;5094240;28;19962;-77
2022/05/11 08:13:34;;;;;;;;;;;;;;;;;;5095089;28;19912;-77
2022/05/11 08:16:00;;;;;;;;;;;;;;;;;;5094668;28;19923;-77
2022/05/11 08:18:26;;;;;;;;;;;;;;;;;;5076427;28;19912;-77
2022/05/11 08:20:52;;;;;;;;;;;;;;;;;;5094714;28;19915;-77
2022/05/11 08:23:18;;;;;;;;;;;;;;;;;;5095024;28;19908;-77
2022/05/11 08:25:46;;;;;;;;;;;;;;;;;;5094713;28;19908;-77
2022/05/11 08:28:12;;;;;;;;;;;;;;;;;;5094762;28;19922;-77
2022/05/11 08:33:22;;;;;;;;;;;;;;;;;;5094888;28;19970;-77
2022/05/11 08:35:49;;;;;;;;;;;;;;;;;;5094485;28;19916;-77
2022/05/11 08:38:15;;;;;;;;;;;;;;;;;;5094408;28;19920;-77
2022/05/11 08:40:41;;;;;;;;;;;;;;;;;;5094180;28;19908;-77
2022/05/11 08:43:06;;;;;;;;;;;;;;;;;;5094557;28;19916;-77
2022/05/11 08:45:32;;;;;;;;;;;;;;;;;;5094362;28;20364;-77
2022/05/11 08:47:59;;;;;;;;;;;;;;;;;;5094178;28;19939;-77
2022/05/11 08:50:26;;;;;;;;;;;;;;;;;;5093965;28;19904;-77
2022/05/11 08:52:52;;;;;;;;;;;;;;;;;;5094298;28;19908;-77
2022/05/11 08:55:18;;;;;;;;;;;;;;;;;;5094272;28;19919;-77
2022/05/11 08:57:44;;;;;;;;;;;;;;;;;;5075887;28;19908;-77
2022/05/11 09:00:10;;;;;;;;;;;;;;;;;;5093750;28;20311;-77
2022/05/11 09:02:36;;;;;;;;;;;;;;;;;;5076001;28;20006;-77
2022/05/11 09:05:02;;;;;;;;;;;;;;;;;;5075903;28;19971;-77
2022/05/11 09:07:27;;;;;;;;;;;;;;;;;;5093949;28;19955;-77
2022/05/11 09:09:53;;;;;;;;;;;;;;;;;;5093683;28;19969;-77
2022/05/11 09:12:20;;;;;;;;;;;;;;;;;;5075875;28;20271;-77
2022/05/11 09:14:49;;;;;;;;;;;;;;;;;;5093644;28;19912;-78
2022/05/11 09:17:15;;;;;;;;;;;;;;;;;;5093796;28;19920;-78
2022/05/11 09:19:41;;;;;;;;;;;;;;;;;;5075245;28;19908;-77
2022/05/11 09:22:06;;;;;;;;;;;;;;;;;;5075293;28;20288;-78
2022/05/11 09:24:32;;;;;;;;;;;;;;;;;;5093670;28;19919;-77
2022/05/11 09:26:58;;;;;;;;;;;;;;;;;;5093687;28;19908;-77
2022/05/11 09:29:25;;;;;;;;;;;;;;;;;;5093278;28;19912;-77
2022/05/11 09:31:51;;;;;;;;;;;;;;;;;;5093632;28;19912;-77
2022/05/11 09:34:17;;;;;;;;;;;;;;;;;;5075551;28;20295;-77
2022/05/11 09:36:43;;;;;;;;;;;;;;;;;;5093278;28;19963;-77
2022/05/11 09:39:13;;;;;;;;;;;;;;;;;;5093065;28;19934;-77
2022/05/11 09:41:40;;;;;;;;;;;;;;;;;;5093370;28;19908;-77
2022/05/11 09:44:07;;;;;;;;;;;;;;;;;;5093413;28;20283;-77
2022/05/11 09:46:33;;;;;;;;;;;;;;;;;;5094081;28;19912;-79
2022/05/11 09:48:59;;;;;;;;;;;;;;;;;;5098403;28;19951;-79
2022/05/11 09:51:24;;;;;;;;;;;;;;;;;;5080213;28;19908;-79
2022/05/11 09:53:51;;;;;;;;;;;;;;;;;;5098222;28;19912;-79
2022/05/11 09:56:16;;;;;;;;;;;;;;;;;;5077324;28;19916;-79
2022/05/11 09:58:42;;;;;;;;;;;;;;;;;;5054988;28;19954;-78
2022/05/11 10:01:10;;;;;;;;;;;;;;;;;;5072549;28;20454;-79
2022/05/11 10:03:36;;;;;;;;;;;;;;;;;;5074423;28;19920;-79
2022/05/11 10:06:01;;;;;;;;;;;;;;;;;;5073725;28;19916;-79
2022/05/11 10:08:27;;;;;;;;;;;;;;;;;;5072133;28;19912;-79
2022/05/11 10:10:54;;;;;;;;;;;;;;;;;;5074313;28;19940;-79
2022/05/11 10:13:20;;;;;;;;;;;;;;;;;;5075093;28;19908;-79
2022/05/11 10:24:00;;;;;;;;;;;;;;;;;;5074007;28;20009;-79
2022/05/11 10:26:26;;;;;;;;;;;;;;;;;;5073804;28;19916;-78
2022/05/11 10:28:52;;;;;;;;;;;;;;;;;;5073963;28;19970;-80
2022/05/11 10:31:18;;;;;;;;;;;;;;;;;;5057098;28;19908;-80
2022/05/11 10:33:44;;;;;;;;;;;;;;;;;;5073930;28;20060;-80
2022/05/11 10:36:10;;;;;;;;;;;;;;;;;;5075282;28;19970;-80
2022/05/11 10:38:36;;;;;;;;;;;;;;;;;;5074891;28;19909;-80
2022/05/11 10:41:02;;;;;;;;;;;;;;;;;;5075644;28;19912;-79
2022/05/11 10:43:28;;;;;;;;;;;;;;;;;;5076768;28;20376;-79
2022/05/11 10:45:54;;;;;;;;;;;;;;;;;;5074600;28;20601;-79
2022/05/11 10:48:20;;;;;;;;;;;;;;;;;;5075218;28;19916;-79
2022/05/11 10:50:46;;;;;;;;;;;;;;;;;;5073951;28;20391;-80
2022/05/11 10:53:12;;;;;;;;;;;;;;;;;;5055531;28;19912;-80
2022/05/11 10:55:38;;;;;;;;;;;;;;;;;;5071269;28;19919;-79
2022/05/11 10:58:03;;;;;;;;;;;;;;;;;;5053297;28;19918;-79
2022/05/11 11:00:29;;;;;;;;;;;;;;;;;;5052983;28;19913;-79
2022/05/11 11:02:56;;;;;;;;;;;;;;;;;;5071077;28;20351;-79
2022/05/11 11:05:22;;;;;;;;;;;;;;;;;;5070866;28;19908;-78
2022/05/11 11:07:49;;;;;;;;;;;;;;;;;;5070732;28;19931;-77
2022/05/11 11:10:15;;;;;;;;;;;;;;;;;;5070988;28;19913;-78
2022/05/11 11:12:41;;;;;;;;;;;;;;;;;;5067639;28;20748;-80
2022/05/11 11:15:07;;;;;;;;;;;;;;;;;;5051548;28;19925;-79
2022/05/11 11:17:33;;;;;;;;;;;;;;;;;;5050784;28;20504;-79
2022/05/11 11:19:59;;;;;;;;;;;;;;;;;;5054243;28;19908;-78
2022/05/11 11:22:24;;;;;;;;;;;;;;;;;;5073713;28;19912;-79
2022/05/11 11:24:50;;;;;;;;;;;;;;;;;;5071032;28;19920;-79
2022/05/11 11:27:16;;;;;;;;;;;;;;;;;;5054708;28;19962;-79
2022/05/11 11:29:42;;;;;;;;;;;;;;;;;;5071936;28;19909;-79
2022/05/11 11:32:08;;;;;;;;;;;;;;;;;;5071149;28;19913;-77
2022/05/11 11:34:34;;;;;;;;;;;;;;;;;;5071411;28;19915;-79
2022/05/11 11:37:00;;;;;;;;;;;;;;;;;;5065811;28;19961;-79
2022/05/11 11:39:26;;;;;;;;;;;;;;;;;;5036052;28;20026;-79
2022/05/11 11:41:52;;;;;;;;;;;;;;;;;;5035392;28;19912;-80
2022/05/11 11:44:18;;;;;;;;;;;;;;;;;;5053413;28;20330;-78
2022/05/11 11:46:44;;;;;;;;;;;;;;;;;;5076070;28;20019;-78
2022/05/11 11:49:10;;;;;;;;;;;;;;;;;;5081075;28;19931;-78
2022/05/11 11:51:36;;;;;;;;;;;;;;;;;;5078593;28;19915;-78
2022/05/11 11:54:02;;;;;;;;;;;;;;;;;;5101092;28;19908;-78
2022/05/11 11:56:28;;;;;;;;;;;;;;;;;;5100967;28;19934;-78
2022/05/11 11:58:54;;;;;;;;;;;;;;;;;;5099395;28;20006;-77
2022/05/11 12:01:23;;;;;;;;;;;;;;;;;;5074977;28;19952;-76
2022/05/11 12:03:49;;;;;;;;;;;;;;;;;;5075774;28;19924;-78
2022/05/11 12:17:14;;;;;;;;;;;;;;;;;;5083273;28;19923;-77
2022/05/11 12:19:41;;;;;;;;;;;;;;;;;;5056852;28;19909;-77
2022/05/11 12:22:10;;;;;;;;;;;;;;;;;;5069071;28;19970;-78
2022/05/11 12:24:36;;;;;;;;;;;;;;;;;;5038469;28;19913;-78
2022/05/11 12:27:02;;;;;;;;;;;;;;;;;;5074557;28;20000;-78
2022/05/11 12:32:14;;;;;;;;;;;;;;;;;;5071031;28;19933;-78
2022/05/11 12:34:41;;;;;;;;;;;;;;;;;;5067353;28;19916;-78
2022/05/11 12:37:07;;;;;;;;;;;;;;;;;;5060180;28;19916;-79
2022/05/11 12:39:33;;;;;;;;;;;;;;;;;;5054187;28;20004;-77
2022/05/11 12:41:59;;;;;;;;;;;;;;;;;;5073444;28;19913;-78
2022/05/11 12:44:25;;;;;;;;;;;;;;;;;;5064546;28;19919;-78
2022/05/11 12:46:52;;;;;;;;;;;;;;;;;;5089691;28;19951;-79
2022/05/11 12:49:18;;;;;;;;;;;;;;;;;;5068033;28;20005;-78
2022/05/11 12:51:44;;;;;;;;;;;;;;;;;;5094358;28;19912;-78
2022/05/11 12:54:10;;;;;;;;;;;;;;;;;;5088843;28;19955;-78
2022/05/11 12:56:38;;;;;;;;;;;;;;;;;;5092249;28;19919;-78
2022/05/11 12:59:04;;;;;;;;;;;;;;;;;;5081031;28;19920;-78
2022/05/11 13:01:30;;;;;;;;;;;;;;;;;;5066252;28;20309;-78
2022/05/11 13:03:56;;;;;;;;;;;;;;;;;;5068660;28;19916;-79
2022/05/11 13:06:22;;;;;;;;;;;;;;;;;;5070544;28;19913;-79
2022/05/11 13:08:48;;;;;;;;;;;;;;;;;;5073224;28;19912;-78
2022/05/11 13:11:15;;;;;;;;;;;;;;;;;;5093766;28;19931;-79
2022/05/11 13:13:42;;;;;;;;;;;;;;;;;;5074191;28;19916;-79
2022/05/11 13:16:08;;;;;;;;;;;;;;;;;;5076343;28;19963;-78
2022/05/11 13:18:34;;;;;;;;;;;;;;;;;;5073645;28;19955;-78
2022/05/11 13:21:00;;;;;;;;;;;;;;;;;;5073905;28;20359;-78
2022/05/11 13:23:26;;;;;;;;;;;;;;;;;;5093641;28;19919;-78
2022/05/11 13:25:52;;;;;;;;;;;;;;;;;;5057693;28;19921;-78
2022/05/11 13:28:18;;;;;;;;;;;;;;;;;;5076590;28;19920;-79
2022/05/11 13:30:46;;;;;;;;;;;;;;;;;;5077466;28;20364;-77
2022/05/11 13:33:12;;;;;;;;;;;;;;;;;;5078010;28;19986;-78
2022/05/11 13:35:38;;;;;;;;;;;;;;;;;;5068506;28;20269;-78
2022/05/11 13:38:04;;;;;;;;;;;;;;;;;;5064661;28;19913;-78
2022/05/11 13:40:30;;;;;;;;;;;;;;;;;;5073582;28;20304;-79
2022/05/11 13:42:56;;;;;;;;;;;;;;;;;;5077271;28;20430;-78
2022/05/11 13:45:22;;;;;;;;;;;;;;;;;;5079335;28;19909;-78
2022/05/11 13:50:32;;;;;;;;;;;;;;;;;;5076684;28;19931;-78
2022/05/11 13:52:58;;;;;;;;;;;;;;;;;;5067735;28;19909;-79
2022/05/11 13:55:24;;;;;;;;;;;;;;;;;;5039612;28;19916;-79
2022/05/11 13:57:50;;;;;;;;;;;;;;;;;;5057720;28;19912;-79
2022/05/11 14:00:16;;;;;;;;;;;;;;;;;;5040184;28;19909;-81
2022/05/11 14:02:42;;;;;;;;;;;;;;;;;;5059633;28;19912;-80
2022/05/11 14:05:07;;;;;;;;;;;;;;;;;;5058835;28;19913;-81
2022/05/11 14:07:33;;;;;;;;;;;;;;;;;;5058440;28;19963;-81
2022/05/11 14:09:59;;;;;;;;;;;;;;;;;;5059213;28;20362;-81
2022/05/11 14:12:26;;;;;;;;;;;;;;;;;;5058959;28;19909;-80
2022/05/11 14:14:52;;;;;;;;;;;;;;;;;;5058182;28;20395;-80
2022/05/11 14:17:18;;;;;;;;;;;;;;;;;;5039962;28;19913;-80
2022/05/11 14:19:44;;;;;;;;;;;;;;;;;;5057958;28;19908;-81
2022/05/11 14:22:10;;;;;;;;;;;;;;;;;;5039966;28;19909;-81
2022/05/11 14:24:36;;;;;;;;;;;;;;;;;;5057989;28;19915;-81
2022/05/11 14:27:02;;;;;;;;;;;;;;;;;;5058699;28;20368;-80
2022/05/11 14:29:38;;;;;;;;;;;;;;;;;;5070968;28;19913;-69
2022/05/11 14:32:04;;;;;;;;;;;;;;;;;;5069897;28;20432;-70
2022/05/11 14:34:29;;;;;;;;;;;;;;;;;;5069965;28;20004;-70
2022/05/11 14:36:56;;;;;;;;;;;;;;;;;;5069908;28;20319;-69
2022/05/11 14:39:24;;;;;;;;;;;;;;;;;;5069253;28;19909;-69
2022/05/11 14:41:50;;;;;;;;;;;;;;;;;;5069584;28;19909;-69
2022/05/11 14:44:16;;;;;;;;;;;;;;;;;;5069709;28;19909;-69
2022/05/11 14:46:42;;;;;;;;;;;;;;;;;;5069540;28;19909;-70
2022/05/11 14:49:08;;;;;;;;;;;;;;;;;;5068987;28;20011;-69
2022/05/11 14:51:38;;;;;;;;;;;;;;;;;;5069541;28;20003;-69
2022/05/11 14:54:04;;;;;;;;;;;;;;;;;;5069517;28;19916;-69
2022/05/11 14:56:30;;;;;;;;;;;;;;;;;;5069450;28;19909;-69
2022/05/11 15:01:56;;;;;;;;;;;;;;;;;;5070611;28;19915;-70
2022/05/11 15:04:22;;;;;;;;;;;;;;;;;;5069361;28;20007;-69
2022/05/11 15:06:48;;;;;;;;;;;;;;;;;;5068804;28;20015;-69
2022/05/11 15:09:14;;;;;;;;;;;;;;;;;;5068453;28;19913;-69
2022/05/11 15:14:27;;;;;;;;;;;;;;;;;;5070456;28;19967;-69
2022/05/11 15:16:53;;;;;;;;;;;;;;;;;;5068956;28;19958;-69
2022/05/11 15:19:19;;;;;;;;;;;;;;;;;;5068583;28;20269;-69
2022/05/11 15:21:45;;;;;;;;;;;;;;;;;;5069009;28;19915;-69
2022/05/11 15:24:11;;;;;;;;;;;;;;;;;;5069069;28;19909;-69
2022/05/11 15:26:37;;;;;;;;;;;;;;;;;;5068867;28;19962;-69
2022/05/11 15:29:03;;;;;;;;;;;;;;;;;;5067919;28;19916;-69
2022/05/11 15:31:29;;;;;;;;;;;;;;;;;;5068648;28;20369;-69
2022/05/11 15:33:55;;;;;;;;;;;;;;;;;;5068417;28;19916;-69
2022/05/11 15:36:21;;;;;;;;;;;;;;;;;;5068474;28;19916;-69
2022/05/11 15:38:47;;;;;;;;;;;;;;;;;;5066852;28;19909;-68
2022/05/11 15:41:13;;;;;;;;;;;;;;;;;;5053491;28;19931;-69
2022/05/11 15:43:39;;;;;;;;;;;;;;;;;;5053993;28;20312;-66
2022/05/11 15:46:04;;;;;;;;;;;;;;;;;;5053841;28;19909;-69
2022/05/11 15:48:30;;;;;;;;;;;;;;;;;;5053375;28;20024;-69
2022/05/11 15:50:56;;;;;;;;;;;;;;;;;;5053625;28;20428;-67
2022/05/11 15:53:22;;;;;;;;;;;;;;;;;;5053712;28;20299;-67
2022/05/11 15:55:49;;;;;;;;;;;;;;;;;;5054029;28;19920;-68
2022/05/11 15:58:15;;;;;;;;;;;;;;;;;;5054379;28;19914;-69
2022/05/11 16:00:41;;;;;;;;;;;;;;;;;;5054422;28;19915;-69
2022/05/11 16:03:06;;;;;;;;;;;;;;;;;;5054743;28;19908;-69
2022/05/11 16:05:32;;;;;;;;;;;;;;;;;;5054824;28;19909;-70
2022/05/11 16:07:58;;;;;;;;;;;;;;;;;;5054466;28;19967;-69
2022/05/11 16:10:24;;;;;;;;;;;;;;;;;;5054341;28;20316;-67
2022/05/11 16:12:50;;;;;;;;;;;;;;;;;;5054442;28;19915;-68
2022/05/11 16:15:16;;;;;;;;;;;;;;;;;;5054642;28;19956;-70
2022/05/11 16:20:27;;;;;;;;;;;;;;;;;;5055584;28;19915;-68
2022/05/11 16:22:53;;;;;;;;;;;;;;;;;;5054432;28;19999;-68
2022/05/11 16:25:19;;;;;;;;;;;;;;;;;;5054508;28;20348;-69
2022/05/11 16:27:44;;;;;;;;;;;;;;;;;;5054031;28;19917;-68
2022/05/11 16:30:10;;;;;;;;;;;;;;;;;;5053745;28;20320;-69
2022/05/11 16:32:37;;;;;;;;;;;;;;;;;;5054302;28;19915;-69
2022/05/11 16:35:03;;;;;;;;;;;;;;;;;;5048937;28;20361;-68
2022/05/11 16:37:28;;;;;;;;;;;;;;;;;;5045971;28;20001;-68
2022/05/11 16:39:55;;;;;;;;;;;;;;;;;;5042945;28;19913;-68
2022/05/11 16:42:24;;;;;;;;;;;;;;;;;;5040189;28;19913;-68
2022/05/11 16:44:50;;;;;;;;;;;;;;;;;;5053433;28;20373;-67
2022/05/11 16:47:16;;;;;;;;;;;;;;;;;;5054163;28;19952;-68
2022/05/11 16:49:42;;;;;;;;;;;;;;;;;;5049525;28;19955;-69
2022/05/11 16:52:08;;;;;;;;;;;;;;;;;;5051283;28;19978;-68
2022/05/11 16:54:34;;;;;;;;;;;;;;;;;;5043305;28;19913;-68
2022/05/11 16:57:00;;;;;;;;;;;;;;;;;;5041901;28;19919;-69
2022/05/11 16:59:26;;;;;;;;;;;;;;;;;;5051401;28;19909;-69
2022/05/11 17:01:52;;;;;;;;;;;;;;;;;;5035734;28;19936;-67
2022/05/11 17:04:19;;;;;;;;;;;;;;;;;;5038685;28;20353;-69
2022/05/11 17:06:45;;;;;;;;;;;;;;;;;;5039974;28;19943;-69
2022/05/11 17:09:11;;;;;;;;;;;;;;;;;;5043826;28;20369;-67
2022/05/11 17:11:37;;;;;;;;;;;;;;;;;;5045298;28;20273;-68
2022/05/11 17:14:03;;;;;;;;;;;;;;;;;;5045885;28;19919;-69
2022/05/11 17:16:30;;;;;;;;;;;;;;;;;;5055821;28;19916;-70
2022/05/11 17:18:56;;;;;;;;;;;;;;;;;;5038778;28;19919;-69
2022/05/11 17:21:23;;;;;;;;;;;;;;;;;;5043849;28;20332;-69
2022/05/11 17:23:49;;;;;;;;;;;;;;;;;;5042814;28;20020;-68
2022/05/11 17:26:15;;;;;;;;;;;;;;;;;;5044227;28;19999;-67
2022/05/11 17:28:41;;;;;;;;;;;;;;;;;;5050374;28;20038;-70
2022/05/11 17:31:07;;;;;;;;;;;;;;;;;;5046913;28;19913;-67
2022/05/11 17:33:33;;;;;;;;;;;;;;;;;;5051911;28;19958;-68